sensor_id;sensor_type;location;lat;lon;timestamp;P1;durP1;ratioP1;P2;durP2;ratioP2
11113;SDS011;5610;52.154;9.198;2023-05-29T00:00:02;11.40;;;4.40;;
11113;SDS011;5610;52.154;9.198;2023-05-29T00:02:54;9.60;;;3.90;;
11113;SDS011;5610;52.154;9.198;2023-05-29T00:05:39;7.20;;;4.00;;
11113;SDS011;5610;52.154;9.198;2023-05-29T00:08:24;12.57;;;4.27;;
11113;SDS011;5610;52.154;9.198;2023-05-29T00:11:10;7.97;;;4.37;;
11113;SDS011;5610;52.154;9.198;2023-05-29T00:13:56;11.07;;;4.67;;
11113;SDS011;5610;52.154;9.198;2023-05-29T00:16:42;9.57;;;4.47;;
11113;SDS011;5610;52.154;9.198;2023-05-29T00:19:28;10.57;;;4.53;;
11113;SDS011;5610;52.154;9.198;2023-05-29T00:22:13;11.97;;;4.27;;
11113;SDS011;5610;52.154;9.198;2023-05-29T00:24:58;13.87;;;4.77;;
11113;SDS011;5610;52.154;9.198;2023-05-29T00:27:44;12.50;;;4.87;;
11113;SDS011;5610;52.154;9.198;2023-05-29T00:30:30;11.23;;;4.20;;
11113;SDS011;5610;52.154;9.198;2023-05-29T00:33:16;11.57;;;4.20;;
11113;SDS011;5610;52.154;9.198;2023-05-29T00:36:02;14.23;;;4.97;;
11113;SDS011;5610;52.154;9.198;2023-05-29T00:38:49;11.57;;;4.17;;
11113;SDS011;5610;52.154;9.198;2023-05-29T00:41:34;7.30;;;3.60;;
11113;SDS011;5610;52.154;9.198;2023-05-29T00:44:19;8.33;;;3.97;;
11113;SDS011;5610;52.154;9.198;2023-05-29T00:47:06;12.70;;;4.50;;
11113;SDS011;5610;52.154;9.198;2023-05-29T00:49:52;12.53;;;4.30;;
11113;SDS011;5610;52.154;9.198;2023-05-29T00:52:41;6.80;;;3.80;;
11113;SDS011;5610;52.154;9.198;2023-05-29T00:55:28;12.03;;;4.97;;
11113;SDS011;5610;52.154;9.198;2023-05-29T00:58:14;10.87;;;4.27;;
11113;SDS011;5610;52.154;9.198;2023-05-29T01:00:59;8.67;;;3.87;;
11113;SDS011;5610;52.154;9.198;2023-05-29T01:03:46;7.47;;;3.87;;
11113;SDS011;5610;52.154;9.198;2023-05-29T01:06:32;8.43;;;3.40;;
11113;SDS011;5610;52.154;9.198;2023-05-29T01:09:18;7.03;;;3.20;;
11113;SDS011;5610;52.154;9.198;2023-05-29T01:12:07;11.90;;;4.17;;
11113;SDS011;5610;52.154;9.198;2023-05-29T01:18:22;7.90;;;3.07;;
11113;SDS011;5610;52.154;9.198;2023-05-29T01:21:22;9.40;;;3.20;;
11113;SDS011;5610;52.154;9.198;2023-05-29T01:24:17;9.07;;;3.70;;
11113;SDS011;5610;52.154;9.198;2023-05-29T01:27:12;9.63;;;3.60;;
11113;SDS011;5610;52.154;9.198;2023-05-29T01:30:02;7.00;;;3.33;;
11113;SDS011;5610;52.154;9.198;2023-05-29T01:32:49;12.07;;;3.47;;
11113;SDS011;5610;52.154;9.198;2023-05-29T01:35:35;12.93;;;4.37;;
11113;SDS011;5610;52.154;9.198;2023-05-29T01:38:20;10.37;;;3.83;;
11113;SDS011;5610;52.154;9.198;2023-05-29T01:41:07;10.00;;;4.43;;
11113;SDS011;5610;52.154;9.198;2023-05-29T01:43:54;9.40;;;4.03;;
11113;SDS011;5610;52.154;9.198;2023-05-29T01:46:41;9.63;;;3.63;;
11113;SDS011;5610;52.154;9.198;2023-05-29T01:49:27;10.23;;;3.70;;
11113;SDS011;5610;52.154;9.198;2023-05-29T01:52:14;8.00;;;3.63;;
11113;SDS011;5610;52.154;9.198;2023-05-29T01:54:59;7.33;;;3.93;;
11113;SDS011;5610;52.154;9.198;2023-05-29T01:57:45;8.00;;;3.57;;
11113;SDS011;5610;52.154;9.198;2023-05-29T02:00:32;10.20;;;3.80;;
11113;SDS011;5610;52.154;9.198;2023-05-29T02:03:18;9.73;;;3.70;;
11113;SDS011;5610;52.154;9.198;2023-05-29T02:06:03;7.03;;;3.77;;
11113;SDS011;5610;52.154;9.198;2023-05-29T02:08:48;8.33;;;3.80;;
11113;SDS011;5610;52.154;9.198;2023-05-29T02:11:33;6.13;;;3.40;;
11113;SDS011;5610;52.154;9.198;2023-05-29T02:14:18;8.50;;;3.70;;
11113;SDS011;5610;52.154;9.198;2023-05-29T02:17:05;10.10;;;4.37;;
11113;SDS011;5610;52.154;9.198;2023-05-29T02:19:51;7.77;;;3.70;;
11113;SDS011;5610;52.154;9.198;2023-05-29T02:22:36;9.17;;;3.73;;
11113;SDS011;5610;52.154;9.198;2023-05-29T02:25:21;9.90;;;3.43;;
11113;SDS011;5610;52.154;9.198;2023-05-29T02:28:06;11.03;;;3.27;;
11113;SDS011;5610;52.154;9.198;2023-05-29T02:30:52;9.80;;;3.50;;
11113;SDS011;5610;52.154;9.198;2023-05-29T02:33:39;10.23;;;4.20;;
11113;SDS011;5610;52.154;9.198;2023-05-29T02:36:27;8.00;;;3.73;;
11113;SDS011;5610;52.154;9.198;2023-05-29T02:39:12;13.43;;;4.03;;
11113;SDS011;5610;52.154;9.198;2023-05-29T02:41:58;7.83;;;3.47;;
11113;SDS011;5610;52.154;9.198;2023-05-29T02:44:43;9.40;;;3.83;;
11113;SDS011;5610;52.154;9.198;2023-05-29T02:47:28;8.40;;;3.40;;
11113;SDS011;5610;52.154;9.198;2023-05-29T02:50:16;10.03;;;3.70;;
11113;SDS011;5610;52.154;9.198;2023-05-29T02:53:01;8.50;;;3.83;;
11113;SDS011;5610;52.154;9.198;2023-05-29T02:55:46;8.10;;;3.23;;
11113;SDS011;5610;52.154;9.198;2023-05-29T02:58:32;7.23;;;3.43;;
11113;SDS011;5610;52.154;9.198;2023-05-29T03:01:19;7.87;;;3.60;;
11113;SDS011;5610;52.154;9.198;2023-05-29T03:04:06;8.33;;;4.33;;
11113;SDS011;5610;52.154;9.198;2023-05-29T03:06:54;9.90;;;3.60;;
11113;SDS011;5610;52.154;9.198;2023-05-29T03:09:39;7.50;;;3.20;;
11113;SDS011;5610;52.154;9.198;2023-05-29T03:12:24;12.10;;;4.50;;
11113;SDS011;5610;52.154;9.198;2023-05-29T03:15:11;11.20;;;4.03;;
11113;SDS011;5610;52.154;9.198;2023-05-29T03:17:57;10.77;;;3.50;;
11113;SDS011;5610;52.154;9.198;2023-05-29T03:20:46;9.17;;;3.73;;
11113;SDS011;5610;52.154;9.198;2023-05-29T03:23:33;10.60;;;3.90;;
11113;SDS011;5610;52.154;9.198;2023-05-29T03:26:18;10.00;;;4.10;;
11113;SDS011;5610;52.154;9.198;2023-05-29T03:29:06;8.73;;;3.60;;
11113;SDS011;5610;52.154;9.198;2023-05-29T03:31:52;10.40;;;3.17;;
11113;SDS011;5610;52.154;9.198;2023-05-29T03:34:42;8.53;;;3.30;;
11113;SDS011;5610;52.154;9.198;2023-05-29T03:37:27;12.50;;;3.43;;
11113;SDS011;5610;52.154;9.198;2023-05-29T03:40:14;5.80;;;3.00;;
11113;SDS011;5610;52.154;9.198;2023-05-29T03:43:00;8.27;;;3.10;;
11113;SDS011;5610;52.154;9.198;2023-05-29T03:45:45;6.20;;;3.73;;
11113;SDS011;5610;52.154;9.198;2023-05-29T03:48:30;11.60;;;4.10;;
11113;SDS011;5610;52.154;9.198;2023-05-29T03:51:15;11.43;;;4.10;;
11113;SDS011;5610;52.154;9.198;2023-05-29T03:54:01;10.97;;;3.63;;
11113;SDS011;5610;52.154;9.198;2023-05-29T03:56:48;12.30;;;4.00;;
11113;SDS011;5610;52.154;9.198;2023-05-29T03:59:35;10.77;;;3.97;;
11113;SDS011;5610;52.154;9.198;2023-05-29T04:02:20;7.40;;;3.53;;
11113;SDS011;5610;52.154;9.198;2023-05-29T04:05:06;11.27;;;4.40;;
11113;SDS011;5610;52.154;9.198;2023-05-29T04:07:53;18.00;;;4.83;;
11113;SDS011;5610;52.154;9.198;2023-05-29T04:10:38;16.87;;;4.57;;
11113;SDS011;5610;52.154;9.198;2023-05-29T04:13:25;13.10;;;4.30;;
11113;SDS011;5610;52.154;9.198;2023-05-29T04:16:10;11.73;;;3.57;;
11113;SDS011;5610;52.154;9.198;2023-05-29T04:18:56;8.30;;;3.63;;
11113;SDS011;5610;52.154;9.198;2023-05-29T04:21:44;7.73;;;3.57;;
11113;SDS011;5610;52.154;9.198;2023-05-29T04:24:30;8.40;;;3.30;;
11113;SDS011;5610;52.154;9.198;2023-05-29T04:27:17;12.33;;;4.13;;
11113;SDS011;5610;52.154;9.198;2023-05-29T04:30:04;6.10;;;3.20;;
11113;SDS011;5610;52.154;9.198;2023-05-29T04:32:55;9.03;;;3.30;;
11113;SDS011;5610;52.154;9.198;2023-05-29T04:35:42;9.90;;;3.67;;
11113;SDS011;5610;52.154;9.198;2023-05-29T04:38:28;11.03;;;3.63;;
11113;SDS011;5610;52.154;9.198;2023-05-29T04:41:15;11.33;;;4.40;;
11113;SDS011;5610;52.154;9.198;2023-05-29T04:44:00;7.40;;;3.30;;
11113;SDS011;5610;52.154;9.198;2023-05-29T04:46:55;7.20;;;3.30;;
11113;SDS011;5610;52.154;9.198;2023-05-29T04:49:41;13.90;;;4.23;;
11113;SDS011;5610;52.154;9.198;2023-05-29T04:52:28;9.53;;;3.97;;
11113;SDS011;5610;52.154;9.198;2023-05-29T04:55:14;10.50;;;3.73;;
11113;SDS011;5610;52.154;9.198;2023-05-29T04:58:00;10.53;;;3.70;;
11113;SDS011;5610;52.154;9.198;2023-05-29T05:00:45;10.23;;;4.60;;
11113;SDS011;5610;52.154;9.198;2023-05-29T05:03:33;11.17;;;3.97;;
11113;SDS011;5610;52.154;9.198;2023-05-29T05:06:18;11.53;;;4.27;;
11113;SDS011;5610;52.154;9.198;2023-05-29T05:09:04;8.53;;;3.80;;
11113;SDS011;5610;52.154;9.198;2023-05-29T05:11:49;11.40;;;4.40;;
11113;SDS011;5610;52.154;9.198;2023-05-29T05:14:35;12.00;;;4.50;;
11113;SDS011;5610;52.154;9.198;2023-05-29T05:17:21;9.43;;;4.20;;
11113;SDS011;5610;52.154;9.198;2023-05-29T05:20:08;10.17;;;3.23;;
11113;SDS011;5610;52.154;9.198;2023-05-29T05:22:56;10.00;;;3.20;;
11113;SDS011;5610;52.154;9.198;2023-05-29T05:25:44;16.57;;;4.47;;
11113;SDS011;5610;52.154;9.198;2023-05-29T05:28:29;7.33;;;3.30;;
11113;SDS011;5610;52.154;9.198;2023-05-29T05:31:14;12.80;;;4.27;;
11113;SDS011;5610;52.154;9.198;2023-05-29T05:33:59;13.23;;;4.27;;
11113;SDS011;5610;52.154;9.198;2023-05-29T05:36:46;7.97;;;3.87;;
11113;SDS011;5610;52.154;9.198;2023-05-29T05:39:33;8.70;;;3.90;;
11113;SDS011;5610;52.154;9.198;2023-05-29T05:42:19;10.20;;;4.40;;
11113;SDS011;5610;52.154;9.198;2023-05-29T05:45:12;10.87;;;4.20;;
11113;SDS011;5610;52.154;9.198;2023-05-29T05:47:57;9.90;;;3.77;;
11113;SDS011;5610;52.154;9.198;2023-05-29T05:50:42;11.03;;;3.80;;
11113;SDS011;5610;52.154;9.198;2023-05-29T05:53:29;8.43;;;4.00;;
11113;SDS011;5610;52.154;9.198;2023-05-29T05:56:15;11.70;;;3.60;;
11113;SDS011;5610;52.154;9.198;2023-05-29T05:59:00;14.53;;;3.87;;
11113;SDS011;5610;52.154;9.198;2023-05-29T06:01:45;10.13;;;3.90;;
11113;SDS011;5610;52.154;9.198;2023-05-29T06:04:31;13.67;;;4.77;;
11113;SDS011;5610;52.154;9.198;2023-05-29T06:07:16;9.80;;;3.47;;
11113;SDS011;5610;52.154;9.198;2023-05-29T06:10:04;12.53;;;3.50;;
11113;SDS011;5610;52.154;9.198;2023-05-29T06:12:50;12.20;;;4.37;;
11113;SDS011;5610;52.154;9.198;2023-05-29T06:15:41;14.77;;;4.03;;
11113;SDS011;5610;52.154;9.198;2023-05-29T06:18:27;10.23;;;3.90;;
11113;SDS011;5610;52.154;9.198;2023-05-29T06:21:12;9.47;;;3.60;;
11113;SDS011;5610;52.154;9.198;2023-05-29T06:24:05;15.10;;;4.63;;
11113;SDS011;5610;52.154;9.198;2023-05-29T06:26:52;8.30;;;3.47;;
11113;SDS011;5610;52.154;9.198;2023-05-29T06:29:38;14.27;;;4.77;;
11113;SDS011;5610;52.154;9.198;2023-05-29T06:32:24;12.73;;;3.97;;
11113;SDS011;5610;52.154;9.198;2023-05-29T06:35:13;10.47;;;3.27;;
11113;SDS011;5610;52.154;9.198;2023-05-29T06:37:58;16.03;;;4.27;;
11113;SDS011;5610;52.154;9.198;2023-05-29T06:40:44;11.03;;;3.70;;
11113;SDS011;5610;52.154;9.198;2023-05-29T06:43:30;14.57;;;4.30;;
11113;SDS011;5610;52.154;9.198;2023-05-29T06:46:16;9.37;;;3.90;;
11113;SDS011;5610;52.154;9.198;2023-05-29T06:49:01;10.67;;;3.60;;
11113;SDS011;5610;52.154;9.198;2023-05-29T06:51:46;10.40;;;4.13;;
11113;SDS011;5610;52.154;9.198;2023-05-29T06:54:41;10.93;;;4.10;;
11113;SDS011;5610;52.154;9.198;2023-05-29T06:57:26;8.37;;;3.67;;
11113;SDS011;5610;52.154;9.198;2023-05-29T07:00:13;12.47;;;4.40;;
11113;SDS011;5610;52.154;9.198;2023-05-29T07:03:07;13.00;;;4.40;;
11113;SDS011;5610;52.154;9.198;2023-05-29T07:05:52;15.00;;;4.47;;
11113;SDS011;5610;52.154;9.198;2023-05-29T07:08:37;12.20;;;4.07;;
11113;SDS011;5610;52.154;9.198;2023-05-29T07:11:24;13.33;;;4.57;;
11113;SDS011;5610;52.154;9.198;2023-05-29T07:14:10;14.17;;;4.13;;
11113;SDS011;5610;52.154;9.198;2023-05-29T07:16:57;13.83;;;3.90;;
11113;SDS011;5610;52.154;9.198;2023-05-29T07:19:43;20.47;;;4.77;;
11113;SDS011;5610;52.154;9.198;2023-05-29T07:22:28;12.77;;;4.00;;
11113;SDS011;5610;52.154;9.198;2023-05-29T07:25:13;14.30;;;4.27;;
11113;SDS011;5610;52.154;9.198;2023-05-29T07:27:58;11.37;;;4.00;;
11113;SDS011;5610;52.154;9.198;2023-05-29T07:30:43;9.77;;;3.70;;
11113;SDS011;5610;52.154;9.198;2023-05-29T07:33:30;15.90;;;4.17;;
11113;SDS011;5610;52.154;9.198;2023-05-29T07:36:15;12.37;;;3.60;;
11113;SDS011;5610;52.154;9.198;2023-05-29T07:39:00;11.17;;;3.70;;
11113;SDS011;5610;52.154;9.198;2023-05-29T07:41:46;13.67;;;4.17;;
11113;SDS011;5610;52.154;9.198;2023-05-29T07:44:32;12.20;;;4.10;;
11113;SDS011;5610;52.154;9.198;2023-05-29T07:47:17;11.23;;;3.90;;
11113;SDS011;5610;52.154;9.198;2023-05-29T07:50:06;13.90;;;3.80;;
11113;SDS011;5610;52.154;9.198;2023-05-29T07:52:53;11.00;;;3.40;;
11113;SDS011;5610;52.154;9.198;2023-05-29T07:55:40;14.93;;;4.20;;
11113;SDS011;5610;52.154;9.198;2023-05-29T07:58:25;8.20;;;3.60;;
11113;SDS011;5610;52.154;9.198;2023-05-29T08:01:11;10.00;;;3.40;;
11113;SDS011;5610;52.154;9.198;2023-05-29T08:03:58;9.70;;;4.10;;
11113;SDS011;5610;52.154;9.198;2023-05-29T08:06:50;13.70;;;3.83;;
11113;SDS011;5610;52.154;9.198;2023-05-29T08:09:36;6.93;;;3.30;;
11113;SDS011;5610;52.154;9.198;2023-05-29T08:12:22;7.80;;;3.57;;
11113;SDS011;5610;52.154;9.198;2023-05-29T08:15:11;10.90;;;3.10;;
11113;SDS011;5610;52.154;9.198;2023-05-29T08:17:57;9.37;;;3.40;;
11113;SDS011;5610;52.154;9.198;2023-05-29T08:20:42;9.33;;;3.10;;
11113;SDS011;5610;52.154;9.198;2023-05-29T08:23:29;9.03;;;3.13;;
11113;SDS011;5610;52.154;9.198;2023-05-29T08:26:15;7.63;;;3.00;;
11113;SDS011;5610;52.154;9.198;2023-05-29T08:29:00;9.67;;;3.57;;
11113;SDS011;5610;52.154;9.198;2023-05-29T08:31:46;10.00;;;3.80;;
11113;SDS011;5610;52.154;9.198;2023-05-29T08:34:32;12.73;;;3.73;;
11113;SDS011;5610;52.154;9.198;2023-05-29T08:37:17;11.93;;;3.43;;
11113;SDS011;5610;52.154;9.198;2023-05-29T08:40:05;9.73;;;3.67;;
11113;SDS011;5610;52.154;9.198;2023-05-29T08:42:55;5.83;;;3.30;;
11113;SDS011;5610;52.154;9.198;2023-05-29T08:45:42;8.90;;;3.53;;
11113;SDS011;5610;52.154;9.198;2023-05-29T08:48:29;12.80;;;3.53;;
11113;SDS011;5610;52.154;9.198;2023-05-29T08:51:15;9.17;;;3.63;;
11113;SDS011;5610;52.154;9.198;2023-05-29T08:54:03;8.90;;;3.13;;
11113;SDS011;5610;52.154;9.198;2023-05-29T08:56:51;10.17;;;3.23;;
11113;SDS011;5610;52.154;9.198;2023-05-29T08:59:36;9.20;;;3.10;;
11113;SDS011;5610;52.154;9.198;2023-05-29T09:02:24;7.70;;;3.60;;
11113;SDS011;5610;52.154;9.198;2023-05-29T09:05:09;7.07;;;2.80;;
11113;SDS011;5610;52.154;9.198;2023-05-29T09:07:56;9.13;;;3.10;;
11113;SDS011;5610;52.154;9.198;2023-05-29T09:10:42;8.60;;;3.13;;
11113;SDS011;5610;52.154;9.198;2023-05-29T09:13:28;7.00;;;2.90;;
11113;SDS011;5610;52.154;9.198;2023-05-29T09:16:16;9.30;;;3.20;;
11113;SDS011;5610;52.154;9.198;2023-05-29T09:19:04;7.10;;;2.77;;
11113;SDS011;5610;52.154;9.198;2023-05-29T09:21:51;7.80;;;2.97;;
11113;SDS011;5610;52.154;9.198;2023-05-29T09:24:37;9.07;;;3.50;;
11113;SDS011;5610;52.154;9.198;2023-05-29T09:27:23;7.93;;;3.13;;
11113;SDS011;5610;52.154;9.198;2023-05-29T09:30:10;7.27;;;3.47;;
11113;SDS011;5610;52.154;9.198;2023-05-29T09:33:05;6.50;;;2.60;;
11113;SDS011;5610;52.154;9.198;2023-05-29T09:35:52;9.07;;;3.53;;
11113;SDS011;5610;52.154;9.198;2023-05-29T09:38:38;9.00;;;2.77;;
11113;SDS011;5610;52.154;9.198;2023-05-29T09:41:23;11.93;;;3.80;;
11113;SDS011;5610;52.154;9.198;2023-05-29T09:44:10;6.13;;;2.30;;
11113;SDS011;5610;52.154;9.198;2023-05-29T09:46:59;7.43;;;3.20;;
11113;SDS011;5610;52.154;9.198;2023-05-29T09:49:45;6.33;;;3.00;;
11113;SDS011;5610;52.154;9.198;2023-05-29T09:52:30;10.00;;;3.23;;
11113;SDS011;5610;52.154;9.198;2023-05-29T09:55:16;4.90;;;2.77;;
11113;SDS011;5610;52.154;9.198;2023-05-29T09:58:03;8.20;;;3.60;;
11113;SDS011;5610;52.154;9.198;2023-05-29T10:00:51;10.37;;;3.67;;
11113;SDS011;5610;52.154;9.198;2023-05-29T10:03:38;6.83;;;3.40;;
11113;SDS011;5610;52.154;9.198;2023-05-29T10:06:26;7.77;;;3.30;;
11113;SDS011;5610;52.154;9.198;2023-05-29T10:09:14;6.97;;;3.17;;
11113;SDS011;5610;52.154;9.198;2023-05-29T10:12:03;9.00;;;3.70;;
11113;SDS011;5610;52.154;9.198;2023-05-29T10:14:51;8.33;;;2.90;;
11113;SDS011;5610;52.154;9.198;2023-05-29T10:17:43;7.70;;;3.07;;
11113;SDS011;5610;52.154;9.198;2023-05-29T10:20:35;9.93;;;3.47;;
11113;SDS011;5610;52.154;9.198;2023-05-29T10:23:21;5.53;;;2.53;;
11113;SDS011;5610;52.154;9.198;2023-05-29T10:26:09;8.20;;;3.20;;
11113;SDS011;5610;52.154;9.198;2023-05-29T10:28:58;8.70;;;3.30;;
11113;SDS011;5610;52.154;9.198;2023-05-29T10:31:54;6.60;;;2.77;;
11113;SDS011;5610;52.154;9.198;2023-05-29T10:34:51;6.37;;;3.20;;
11113;SDS011;5610;52.154;9.198;2023-05-29T10:37:47;8.20;;;3.20;;
11113;SDS011;5610;52.154;9.198;2023-05-29T10:40:37;6.17;;;3.10;;
11113;SDS011;5610;52.154;9.198;2023-05-29T10:43:32;9.57;;;2.87;;
11113;SDS011;5610;52.154;9.198;2023-05-29T10:46:18;9.13;;;3.13;;
11113;SDS011;5610;52.154;9.198;2023-05-29T10:49:03;4.77;;;2.97;;
11113;SDS011;5610;52.154;9.198;2023-05-29T10:52:00;6.43;;;3.10;;
11113;SDS011;5610;52.154;9.198;2023-05-29T10:54:54;7.37;;;3.30;;
11113;SDS011;5610;52.154;9.198;2023-05-29T10:57:46;6.20;;;2.50;;
11113;SDS011;5610;52.154;9.198;2023-05-29T11:00:32;8.03;;;2.90;;
11113;SDS011;5610;52.154;9.198;2023-05-29T11:03:19;8.03;;;2.77;;
11113;SDS011;5610;52.154;9.198;2023-05-29T11:06:05;6.07;;;2.87;;
11113;SDS011;5610;52.154;9.198;2023-05-29T11:08:53;5.40;;;3.10;;
11113;SDS011;5610;52.154;9.198;2023-05-29T11:11:41;5.43;;;2.70;;
11113;SDS011;5610;52.154;9.198;2023-05-29T11:14:28;6.10;;;2.83;;
11113;SDS011;5610;52.154;9.198;2023-05-29T11:17:29;6.50;;;2.60;;
11113;SDS011;5610;52.154;9.198;2023-05-29T11:23:26;7.07;;;3.50;;
11113;SDS011;5610;52.154;9.198;2023-05-29T11:26:16;6.33;;;2.67;;
11113;SDS011;5610;52.154;9.198;2023-05-29T11:29:04;7.40;;;3.10;;
11113;SDS011;5610;52.154;9.198;2023-05-29T11:31:54;4.53;;;2.77;;
11113;SDS011;5610;52.154;9.198;2023-05-29T11:34:44;5.47;;;3.27;;
11113;SDS011;5610;52.154;9.198;2023-05-29T11:37:32;8.03;;;3.13;;
11113;SDS011;5610;52.154;9.198;2023-05-29T11:40:17;4.73;;;2.57;;
11113;SDS011;5610;52.154;9.198;2023-05-29T11:43:02;4.40;;;2.43;;
11113;SDS011;5610;52.154;9.198;2023-05-29T11:45:50;4.17;;;2.50;;
11113;SDS011;5610;52.154;9.198;2023-05-29T11:48:44;5.20;;;2.93;;
11113;SDS011;5610;52.154;9.198;2023-05-29T11:51:30;4.23;;;2.40;;
11113;SDS011;5610;52.154;9.198;2023-05-29T11:54:16;4.90;;;2.40;;
11113;SDS011;5610;52.154;9.198;2023-05-29T11:57:04;4.33;;;2.83;;
11113;SDS011;5610;52.154;9.198;2023-05-29T11:59:50;4.83;;;2.50;;
11113;SDS011;5610;52.154;9.198;2023-05-29T12:02:37;5.10;;;2.83;;
11113;SDS011;5610;52.154;9.198;2023-05-29T12:05:22;4.43;;;2.47;;
11113;SDS011;5610;52.154;9.198;2023-05-29T12:08:08;5.13;;;2.77;;
11113;SDS011;5610;52.154;9.198;2023-05-29T12:10:54;4.67;;;2.70;;
11113;SDS011;5610;52.154;9.198;2023-05-29T12:13:40;5.50;;;2.87;;
11113;SDS011;5610;52.154;9.198;2023-05-29T12:16:26;7.30;;;2.90;;
11113;SDS011;5610;52.154;9.198;2023-05-29T12:19:13;4.33;;;2.93;;
11113;SDS011;5610;52.154;9.198;2023-05-29T12:21:59;4.97;;;3.20;;
11113;SDS011;5610;52.154;9.198;2023-05-29T12:24:44;6.80;;;3.33;;
11113;SDS011;5610;52.154;9.198;2023-05-29T12:27:30;6.60;;;3.03;;
11113;SDS011;5610;52.154;9.198;2023-05-29T12:30:21;6.93;;;3.33;;
11113;SDS011;5610;52.154;9.198;2023-05-29T12:33:07;6.93;;;3.53;;
11113;SDS011;5610;52.154;9.198;2023-05-29T12:35:53;7.33;;;3.63;;
11113;SDS011;5610;52.154;9.198;2023-05-29T12:38:46;5.77;;;2.97;;
11113;SDS011;5610;52.154;9.198;2023-05-29T12:41:33;6.90;;;3.07;;
11113;SDS011;5610;52.154;9.198;2023-05-29T12:44:19;7.60;;;3.20;;
11113;SDS011;5610;52.154;9.198;2023-05-29T12:47:04;6.77;;;2.80;;
11113;SDS011;5610;52.154;9.198;2023-05-29T12:49:49;6.40;;;3.17;;
11113;SDS011;5610;52.154;9.198;2023-05-29T12:52:35;5.27;;;2.50;;
11113;SDS011;5610;52.154;9.198;2023-05-29T12:55:25;4.80;;;2.87;;
11113;SDS011;5610;52.154;9.198;2023-05-29T12:58:12;6.00;;;3.27;;
11113;SDS011;5610;52.154;9.198;2023-05-29T13:00:58;4.40;;;3.00;;
11113;SDS011;5610;52.154;9.198;2023-05-29T13:03:43;8.97;;;3.37;;
11113;SDS011;5610;52.154;9.198;2023-05-29T13:06:28;5.80;;;3.00;;
11113;SDS011;5610;52.154;9.198;2023-05-29T13:09:15;8.30;;;2.63;;
11113;SDS011;5610;52.154;9.198;2023-05-29T13:12:00;5.43;;;2.87;;
11113;SDS011;5610;52.154;9.198;2023-05-29T13:14:46;5.17;;;2.77;;
11113;SDS011;5610;52.154;9.198;2023-05-29T13:17:31;4.27;;;2.50;;
11113;SDS011;5610;52.154;9.198;2023-05-29T13:20:16;5.70;;;2.77;;
11113;SDS011;5610;52.154;9.198;2023-05-29T13:23:02;7.07;;;3.03;;
11113;SDS011;5610;52.154;9.198;2023-05-29T13:25:49;5.40;;;2.97;;
11113;SDS011;5610;52.154;9.198;2023-05-29T13:28:35;5.80;;;2.90;;
11113;SDS011;5610;52.154;9.198;2023-05-29T13:31:19;5.67;;;2.70;;
11113;SDS011;5610;52.154;9.198;2023-05-29T13:34:05;7.00;;;3.10;;
11113;SDS011;5610;52.154;9.198;2023-05-29T13:36:50;6.77;;;3.00;;
11113;SDS011;5610;52.154;9.198;2023-05-29T13:39:35;5.83;;;3.37;;
11113;SDS011;5610;52.154;9.198;2023-05-29T13:42:21;4.87;;;3.10;;
11113;SDS011;5610;52.154;9.198;2023-05-29T13:45:07;5.70;;;3.17;;
11113;SDS011;5610;52.154;9.198;2023-05-29T13:47:53;6.13;;;3.50;;
11113;SDS011;5610;52.154;9.198;2023-05-29T13:50:38;5.20;;;3.00;;
11113;SDS011;5610;52.154;9.198;2023-05-29T13:53:24;7.30;;;2.97;;
11113;SDS011;5610;52.154;9.198;2023-05-29T13:56:09;5.77;;;3.13;;
11113;SDS011;5610;52.154;9.198;2023-05-29T13:58:56;6.87;;;3.10;;
11113;SDS011;5610;52.154;9.198;2023-05-29T14:01:43;6.10;;;3.23;;
11113;SDS011;5610;52.154;9.198;2023-05-29T14:04:29;6.60;;;3.00;;
11113;SDS011;5610;52.154;9.198;2023-05-29T14:07:15;5.03;;;3.40;;
11113;SDS011;5610;52.154;9.198;2023-05-29T14:10:00;8.80;;;3.50;;
11113;SDS011;5610;52.154;9.198;2023-05-29T14:12:46;6.17;;;3.10;;
11113;SDS011;5610;52.154;9.198;2023-05-29T14:15:32;4.70;;;3.27;;
11113;SDS011;5610;52.154;9.198;2023-05-29T14:18:17;6.77;;;2.90;;
11113;SDS011;5610;52.154;9.198;2023-05-29T14:21:03;10.07;;;3.33;;
11113;SDS011;5610;52.154;9.198;2023-05-29T14:23:48;6.77;;;2.83;;
11113;SDS011;5610;52.154;9.198;2023-05-29T14:26:34;9.90;;;3.70;;
11113;SDS011;5610;52.154;9.198;2023-05-29T14:29:19;10.13;;;3.43;;
11113;SDS011;5610;52.154;9.198;2023-05-29T14:32:06;5.00;;;3.10;;
11113;SDS011;5610;52.154;9.198;2023-05-29T14:34:51;8.43;;;3.30;;
11113;SDS011;5610;52.154;9.198;2023-05-29T14:37:37;4.60;;;2.93;;
11113;SDS011;5610;52.154;9.198;2023-05-29T14:40:22;4.30;;;2.57;;
11113;SDS011;5610;52.154;9.198;2023-05-29T14:43:07;6.90;;;3.40;;
11113;SDS011;5610;52.154;9.198;2023-05-29T14:45:52;4.50;;;2.47;;
11113;SDS011;5610;52.154;9.198;2023-05-29T14:48:38;7.90;;;3.60;;
11113;SDS011;5610;52.154;9.198;2023-05-29T14:51:24;6.10;;;3.00;;
11113;SDS011;5610;52.154;9.198;2023-05-29T14:54:09;6.50;;;2.90;;
11113;SDS011;5610;52.154;9.198;2023-05-29T14:56:55;6.60;;;3.10;;
11113;SDS011;5610;52.154;9.198;2023-05-29T14:59:41;4.20;;;2.67;;
11113;SDS011;5610;52.154;9.198;2023-05-29T15:02:27;5.90;;;3.30;;
11113;SDS011;5610;52.154;9.198;2023-05-29T15:05:13;6.47;;;3.20;;
11113;SDS011;5610;52.154;9.198;2023-05-29T15:07:59;8.60;;;3.13;;
11113;SDS011;5610;52.154;9.198;2023-05-29T15:10:44;4.93;;;3.00;;
11113;SDS011;5610;52.154;9.198;2023-05-29T15:13:30;6.47;;;3.33;;
11113;SDS011;5610;52.154;9.198;2023-05-29T15:16:15;7.77;;;2.97;;
11113;SDS011;5610;52.154;9.198;2023-05-29T15:19:00;5.97;;;3.13;;
11113;SDS011;5610;52.154;9.198;2023-05-29T15:21:47;5.00;;;2.90;;
11113;SDS011;5610;52.154;9.198;2023-05-29T15:24:32;8.27;;;3.80;;
11113;SDS011;5610;52.154;9.198;2023-05-29T15:27:17;6.13;;;3.57;;
11113;SDS011;5610;52.154;9.198;2023-05-29T15:30:09;8.73;;;3.30;;
11113;SDS011;5610;52.154;9.198;2023-05-29T15:32:55;11.00;;;3.83;;
11113;SDS011;5610;52.154;9.198;2023-05-29T15:35:40;7.63;;;3.17;;
11113;SDS011;5610;52.154;9.198;2023-05-29T15:38:27;6.67;;;3.07;;
11113;SDS011;5610;52.154;9.198;2023-05-29T15:41:15;9.17;;;2.93;;
11113;SDS011;5610;52.154;9.198;2023-05-29T15:44:01;6.23;;;3.03;;
11113;SDS011;5610;52.154;9.198;2023-05-29T15:46:46;7.40;;;3.40;;
11113;SDS011;5610;52.154;9.198;2023-05-29T15:49:31;6.00;;;3.20;;
11113;SDS011;5610;52.154;9.198;2023-05-29T15:52:17;6.10;;;2.67;;
11113;SDS011;5610;52.154;9.198;2023-05-29T15:55:04;9.33;;;3.30;;
11113;SDS011;5610;52.154;9.198;2023-05-29T15:57:50;10.93;;;3.77;;
11113;SDS011;5610;52.154;9.198;2023-05-29T16:00:36;7.60;;;3.77;;
11113;SDS011;5610;52.154;9.198;2023-05-29T16:03:21;5.90;;;2.93;;
11113;SDS011;5610;52.154;9.198;2023-05-29T16:06:06;7.63;;;3.47;;
11113;SDS011;5610;52.154;9.198;2023-05-29T16:08:52;5.80;;;3.07;;
11113;SDS011;5610;52.154;9.198;2023-05-29T16:11:38;7.40;;;2.40;;
11113;SDS011;5610;52.154;9.198;2023-05-29T16:14:24;9.70;;;3.43;;
11113;SDS011;5610;52.154;9.198;2023-05-29T16:17:10;8.40;;;3.30;;
11113;SDS011;5610;52.154;9.198;2023-05-29T16:19:55;6.03;;;3.40;;
11113;SDS011;5610;52.154;9.198;2023-05-29T16:22:40;7.00;;;3.07;;
11113;SDS011;5610;52.154;9.198;2023-05-29T16:25:25;6.83;;;3.00;;
11113;SDS011;5610;52.154;9.198;2023-05-29T16:28:11;7.17;;;2.83;;
11113;SDS011;5610;52.154;9.198;2023-05-29T16:30:57;8.67;;;3.63;;
11113;SDS011;5610;52.154;9.198;2023-05-29T16:33:42;7.47;;;3.60;;
11113;SDS011;5610;52.154;9.198;2023-05-29T16:36:28;9.00;;;3.90;;
11113;SDS011;5610;52.154;9.198;2023-05-29T16:39:13;12.63;;;3.40;;
11113;SDS011;5610;52.154;9.198;2023-05-29T16:42:05;10.83;;;3.40;;
11113;SDS011;5610;52.154;9.198;2023-05-29T16:44:53;10.20;;;3.70;;
11113;SDS011;5610;52.154;9.198;2023-05-29T16:47:38;9.73;;;3.33;;
11113;SDS011;5610;52.154;9.198;2023-05-29T16:50:24;11.50;;;3.80;;
11113;SDS011;5610;52.154;9.198;2023-05-29T16:53:09;7.63;;;3.73;;
11113;SDS011;5610;52.154;9.198;2023-05-29T16:55:55;10.20;;;3.53;;
11113;SDS011;5610;52.154;9.198;2023-05-29T16:58:40;7.40;;;3.77;;
11113;SDS011;5610;52.154;9.198;2023-05-29T17:01:27;11.97;;;3.33;;